sensor_id;sensor_type;location;lat;lon;timestamp;pressure;altitude;pressure_sealevel;temperature;humidity
72330;BME280;69154;52.076;5.110;2023-06-24T00:01:37;102484.93;;;21.80;29.83
72330;BME280;69154;52.076;5.110;2023-06-24T00:04:03;102487.79;;;21.80;29.92
72330;BME280;69154;52.076;5.110;2023-06-24T00:06:28;102491.26;;;21.88;29.60
72330;BME280;69154;52.076;5.110;2023-06-24T00:08:54;102491.84;;;22.65;29.09
72330;BME280;69154;52.076;5.110;2023-06-24T00:11:19;102489.28;;;22.19;29.81
72330;BME280;69154;52.076;5.110;2023-06-24T00:13:44;102490.85;;;21.74;29.91
72330;BME280;69154;52.076;5.110;2023-06-24T00:16:10;102491.84;;;21.21;30.16
72330;BME280;69154;52.076;5.110;2023-06-24T00:18:36;102493.39;;;21.88;29.16
72330;BME280;69154;52.076;5.110;2023-06-24T00:21:01;102492.23;;;21.69;30.69
72330;BME280;69154;52.076;5.110;2023-06-24T00:23:26;102493.74;;;21.42;30.79
72330;BME280;69154;52.076;5.110;2023-06-24T00:25:56;102492.52;;;20.86;31.47
72330;BME280;69154;52.076;5.110;2023-06-24T00:28:16;102488.31;;;21.29;31.65
72330;BME280;69154;52.076;5.110;2023-06-24T00:30:41;102491.57;;;21.41;31.40
72330;BME280;69154;52.076;5.110;2023-06-24T00:33:07;102492.33;;;21.74;30.90
72330;BME280;69154;52.076;5.110;2023-06-24T00:35:33;102490.10;;;20.99;31.24
72330;BME280;69154;52.076;5.110;2023-06-24T00:37:58;102494.22;;;21.36;31.17
72330;BME280;69154;52.076;5.110;2023-06-24T00:40:24;102496.50;;;21.60;31.20
72330;BME280;69154;52.076;5.110;2023-06-24T00:42:49;102498.53;;;21.03;31.84
72330;BME280;69154;52.076;5.110;2023-06-24T00:45:14;102500.04;;;21.46;31.24
72330;BME280;69154;52.076;5.110;2023-06-24T00:47:40;102498.46;;;21.86;30.80
72330;BME280;69154;52.076;5.110;2023-06-24T00:50:06;102497.79;;;20.95;31.12
72330;BME280;69154;52.076;5.110;2023-06-24T00:52:30;102491.99;;;19.20;31.86
72330;BME280;69154;52.076;5.110;2023-06-24T00:54:56;102491.12;;;20.84;31.21
72330;BME280;69154;52.076;5.110;2023-06-24T00:57:22;102489.59;;;21.25;30.44
72330;BME280;69154;52.076;5.110;2023-06-24T00:59:47;102491.46;;;20.66;31.54
72330;BME280;69154;52.076;5.110;2023-06-24T01:02:12;102490.62;;;20.79;31.63
72330;BME280;69154;52.076;5.110;2023-06-24T01:04:38;102487.27;;;21.08;30.79
72330;BME280;69154;52.076;5.110;2023-06-24T01:07:05;102484.61;;;21.31;30.07
72330;BME280;69154;52.076;5.110;2023-06-24T01:09:29;102483.43;;;20.28;30.45
72330;BME280;69154;52.076;5.110;2023-06-24T01:11:54;102478.46;;;20.86;30.83
72330;BME280;69154;52.076;5.110;2023-06-24T01:14:19;102474.99;;;20.50;31.30
72330;BME280;69154;52.076;5.110;2023-06-24T01:16:49;102475.71;;;18.90;32.73
72330;BME280;69154;52.076;5.110;2023-06-24T01:19:26;102473.10;;;21.05;30.99
72330;BME280;69154;52.076;5.110;2023-06-24T01:21:46;102475.60;;;19.19;32.21
72330;BME280;69154;52.076;5.110;2023-06-24T01:24:17;102474.37;;;19.45;32.88
72330;BME280;69154;52.076;5.110;2023-06-24T01:29:03;102469.98;;;18.00;34.12
72330;BME280;69154;52.076;5.110;2023-06-24T01:31:25;102471.78;;;18.63;34.30
72330;BME280;69154;52.076;5.110;2023-06-24T01:33:45;102472.93;;;18.01;34.67
72330;BME280;69154;52.076;5.110;2023-06-24T01:36:08;102472.20;;;18.69;34.42
72330;BME280;69154;52.076;5.110;2023-06-24T01:38:34;102472.70;;;19.70;33.09
72330;BME280;69154;52.076;5.110;2023-06-24T01:40:56;102471.34;;;17.94;35.07
72330;BME280;69154;52.076;5.110;2023-06-24T01:43:23;102465.80;;;18.45;34.97
72330;BME280;69154;52.076;5.110;2023-06-24T01:45:50;102466.53;;;19.51;34.26
72330;BME280;69154;52.076;5.110;2023-06-24T01:48:14;102462.00;;;20.39;33.25
72330;BME280;69154;52.076;5.110;2023-06-24T01:50:39;102465.02;;;19.89;33.59
72330;BME280;69154;52.076;5.110;2023-06-24T01:53:06;102468.73;;;19.95;33.64
72330;BME280;69154;52.076;5.110;2023-06-24T01:55:28;102469.60;;;20.26;33.49
72330;BME280;69154;52.076;5.110;2023-06-24T01:57:54;102466.09;;;20.87;33.24
72330;BME280;69154;52.076;5.110;2023-06-24T02:00:19;102467.55;;;20.02;33.82
72330;BME280;69154;52.076;5.110;2023-06-24T02:02:45;102462.51;;;20.17;33.57
72330;BME280;69154;52.076;5.110;2023-06-24T02:05:10;102460.17;;;18.26;35.25
72330;BME280;69154;52.076;5.110;2023-06-24T02:07:36;102458.39;;;20.27;33.77
72330;BME280;69154;52.076;5.110;2023-06-24T02:10:00;102455.20;;;21.03;32.53
72330;BME280;69154;52.076;5.110;2023-06-24T02:12:26;102453.21;;;20.99;32.57
72330;BME280;69154;52.076;5.110;2023-06-24T02:14:51;102453.84;;;20.52;32.13
72330;BME280;69154;52.076;5.110;2023-06-24T02:17:17;102455.22;;;20.55;31.62
72330;BME280;69154;52.076;5.110;2023-06-24T02:19:42;102455.60;;;20.09;31.52
72330;BME280;69154;52.076;5.110;2023-06-24T02:22:07;102452.48;;;20.68;30.99
72330;BME280;69154;52.076;5.110;2023-06-24T02:24:32;102451.78;;;20.74;30.10
72330;BME280;69154;52.076;5.110;2023-06-24T02:26:57;102450.40;;;21.18;30.38
72330;BME280;69154;52.076;5.110;2023-06-24T02:29:23;102449.33;;;20.55;29.97
72330;BME280;69154;52.076;5.110;2023-06-24T02:31:47;102446.55;;;19.98;29.32
72330;BME280;69154;52.076;5.110;2023-06-24T02:34:14;102447.84;;;19.59;30.24
72330;BME280;69154;52.076;5.110;2023-06-24T02:36:39;102444.35;;;20.39;29.89
72330;BME280;69154;52.076;5.110;2023-06-24T02:39:04;102443.53;;;20.38;29.94
72330;BME280;69154;52.076;5.110;2023-06-24T02:41:29;102440.87;;;20.68;28.39
72330;BME280;69154;52.076;5.110;2023-06-24T02:43:55;102437.96;;;20.38;29.25
72330;BME280;69154;52.076;5.110;2023-06-24T02:46:22;102436.23;;;20.41;29.52
72330;BME280;69154;52.076;5.110;2023-06-24T02:48:47;102440.47;;;19.27;29.25
72330;BME280;69154;52.076;5.110;2023-06-24T02:51:11;102442.63;;;19.54;29.62
72330;BME280;69154;52.076;5.110;2023-06-24T02:53:37;102440.56;;;17.51;31.42
72330;BME280;69154;52.076;5.110;2023-06-24T02:56:01;102440.38;;;17.46;31.73
72330;BME280;69154;52.076;5.110;2023-06-24T02:58:27;102443.87;;;19.67;30.06
72330;BME280;69154;52.076;5.110;2023-06-24T03:00:52;102447.81;;;20.24;29.02
72330;BME280;69154;52.076;5.110;2023-06-24T03:03:18;102449.08;;;20.22;30.18
72330;BME280;69154;52.076;5.110;2023-06-24T03:05:42;102449.84;;;19.74;29.46
72330;BME280;69154;52.076;5.110;2023-06-24T03:08:08;102448.25;;;20.25;29.19
72330;BME280;69154;52.076;5.110;2023-06-24T03:10:36;102448.43;;;19.51;28.60
72330;BME280;69154;52.076;5.110;2023-06-24T03:12:58;102450.25;;;19.74;29.02
72330;BME280;69154;52.076;5.110;2023-06-24T03:15:24;102448.71;;;20.13;28.51
72330;BME280;69154;52.076;5.110;2023-06-24T03:17:50;102444.80;;;19.82;29.18
72330;BME280;69154;52.076;5.110;2023-06-24T03:20:13;102446.28;;;19.81;29.22
72330;BME280;69154;52.076;5.110;2023-06-24T03:22:39;102441.15;;;18.65;30.47
72330;BME280;69154;52.076;5.110;2023-06-24T03:25:05;102443.55;;;18.95;30.46
72330;BME280;69154;52.076;5.110;2023-06-24T03:27:29;102443.08;;;19.49;30.54
72330;BME280;69154;52.076;5.110;2023-06-24T03:29:54;102442.58;;;19.77;30.24
72330;BME280;69154;52.076;5.110;2023-06-24T03:32:20;102439.43;;;19.93;30.80
72330;BME280;69154;52.076;5.110;2023-06-24T03:34:45;102442.17;;;20.00;31.10
72330;BME280;69154;52.076;5.110;2023-06-24T03:37:10;102443.63;;;19.62;31.00
72330;BME280;69154;52.076;5.110;2023-06-24T03:39:35;102446.91;;;18.83;31.39
72330;BME280;69154;52.076;5.110;2023-06-24T03:42:00;102448.89;;;19.54;30.53
72330;BME280;69154;52.076;5.110;2023-06-24T03:44:26;102455.05;;;19.92;30.78
72330;BME280;69154;52.076;5.110;2023-06-24T03:46:51;102456.01;;;19.33;30.88
72330;BME280;69154;52.076;5.110;2023-06-24T03:49:16;102452.99;;;20.77;28.97
72330;BME280;69154;52.076;5.110;2023-06-24T03:51:41;102448.26;;;20.24;29.71
72330;BME280;69154;52.076;5.110;2023-06-24T03:54:06;102446.27;;;20.60;29.91
72330;BME280;69154;52.076;5.110;2023-06-24T03:56:31;102446.54;;;19.59;30.05
72330;BME280;69154;52.076;5.110;2023-06-24T03:58:56;102444.74;;;20.73;30.09
72330;BME280;69154;52.076;5.110;2023-06-24T04:01:21;102444.31;;;20.15;30.63
72330;BME280;69154;52.076;5.110;2023-06-24T04:03:47;102444.71;;;20.16;30.30
72330;BME280;69154;52.076;5.110;2023-06-24T04:06:13;102440.71;;;20.08;30.54
72330;BME280;69154;52.076;5.110;2023-06-24T04:08:38;102443.67;;;19.73;30.94
72330;BME280;69154;52.076;5.110;2023-06-24T04:11:03;102444.32;;;20.02;31.23
72330;BME280;69154;52.076;5.110;2023-06-24T04:13:28;102443.11;;;20.24;31.19
72330;BME280;69154;52.076;5.110;2023-06-24T04:15:53;102449.59;;;20.31;31.13
72330;BME280;69154;52.076;5.110;2023-06-24T04:18:19;102452.28;;;20.22;30.83
72330;BME280;69154;52.076;5.110;2023-06-24T04:20:44;102457.39;;;20.16;30.86
72330;BME280;69154;52.076;5.110;2023-06-24T04:23:09;102459.09;;;20.71;30.81
72330;BME280;69154;52.076;5.110;2023-06-24T04:25:34;102460.69;;;19.37;31.13
72330;BME280;69154;52.076;5.110;2023-06-24T04:27:59;102457.14;;;20.06;31.72
72330;BME280;69154;52.076;5.110;2023-06-24T04:30:25;102457.38;;;20.31;31.16
72330;BME280;69154;52.076;5.110;2023-06-24T04:32:49;102455.79;;;20.14;31.67
72330;BME280;69154;52.076;5.110;2023-06-24T04:35:14;102458.80;;;20.43;31.03
72330;BME280;69154;52.076;5.110;2023-06-24T04:37:39;102467.90;;;20.19;31.07
72330;BME280;69154;52.076;5.110;2023-06-24T04:40:05;102470.22;;;20.41;31.61
72330;BME280;69154;52.076;5.110;2023-06-24T04:42:29;102466.73;;;20.48;30.42
72330;BME280;69154;52.076;5.110;2023-06-24T04:44:55;102465.40;;;20.55;31.10
72330;BME280;69154;52.076;5.110;2023-06-24T04:47:20;102459.27;;;20.90;30.73
72330;BME280;69154;52.076;5.110;2023-06-24T04:49:45;102459.64;;;20.57;30.52
72330;BME280;69154;52.076;5.110;2023-06-24T04:52:11;102456.81;;;21.16;30.80
72330;BME280;69154;52.076;5.110;2023-06-24T04:54:35;102459.71;;;19.17;30.72
72330;BME280;69154;52.076;5.110;2023-06-24T04:57:00;102459.37;;;20.28;30.45
72330;BME280;69154;52.076;5.110;2023-06-24T04:59:26;102461.35;;;19.27;32.57
72330;BME280;69154;52.076;5.110;2023-06-24T05:01:51;102462.51;;;20.25;31.85
72330;BME280;69154;52.076;5.110;2023-06-24T05:04:16;102468.19;;;19.76;32.66
72330;BME280;69154;52.076;5.110;2023-06-24T05:06:42;102471.39;;;19.87;33.46
72330;BME280;69154;52.076;5.110;2023-06-24T05:09:08;102473.25;;;19.67;30.11
72330;BME280;69154;52.076;5.110;2023-06-24T05:11:32;102476.74;;;19.12;32.60
72330;BME280;69154;52.076;5.110;2023-06-24T05:13:58;102479.55;;;19.87;31.67
72330;BME280;69154;52.076;5.110;2023-06-24T05:16:24;102476.42;;;19.49;31.00
72330;BME280;69154;52.076;5.110;2023-06-24T05:18:50;102478.82;;;20.41;31.86
72330;BME280;69154;52.076;5.110;2023-06-24T05:21:15;102479.26;;;20.68;30.99
72330;BME280;69154;52.076;5.110;2023-06-24T05:23:41;102480.96;;;20.44;31.54
72330;BME280;69154;52.076;5.110;2023-06-24T05:26:06;102483.56;;;21.63;28.29
72330;BME280;69154;52.076;5.110;2023-06-24T05:28:32;102483.58;;;21.04;28.95
72330;BME280;69154;52.076;5.110;2023-06-24T05:30:58;102483.92;;;21.47;30.04
72330;BME280;69154;52.076;5.110;2023-06-24T05:33:24;102483.36;;;21.36;28.90
72330;BME280;69154;52.076;5.110;2023-06-24T05:35:49;102483.05;;;21.33;28.22
72330;BME280;69154;52.076;5.110;2023-06-24T05:38:15;102485.91;;;21.62;28.03
72330;BME280;69154;52.076;5.110;2023-06-24T05:40:40;102485.34;;;20.96;28.85
72330;BME280;69154;52.076;5.110;2023-06-24T05:43:06;102488.06;;;21.91;28.31
72330;BME280;69154;52.076;5.110;2023-06-24T05:45:32;102490.69;;;20.61;29.11
72330;BME280;69154;52.076;5.110;2023-06-24T05:47:58;102491.51;;;20.30;29.75
72330;BME280;69154;52.076;5.110;2023-06-24T05:50:24;102495.37;;;20.95;30.25
72330;BME280;69154;52.076;5.110;2023-06-24T05:52:48;102492.71;;;20.38;29.01
72330;BME280;69154;52.076;5.110;2023-06-24T05:55:14;102492.59;;;21.63;28.80
72330;BME280;69154;52.076;5.110;2023-06-24T05:57:40;102495.76;;;21.84;29.52
72330;BME280;69154;52.076;5.110;2023-06-24T06:00:07;102490.26;;;21.20;28.76
72330;BME280;69154;52.076;5.110;2023-06-24T06:02:32;102487.96;;;20.25;28.72
72330;BME280;69154;52.076;5.110;2023-06-24T06:04:57;102490.20;;;19.77;30.35
72330;BME280;69154;52.076;5.110;2023-06-24T06:07:23;102491.35;;;21.40;30.04
72330;BME280;69154;52.076;5.110;2023-06-24T06:09:48;102493.37;;;19.41;30.94
72330;BME280;69154;52.076;5.110;2023-06-24T06:12:14;102496.52;;;20.46;30.25
72330;BME280;69154;52.076;5.110;2023-06-24T06:14:40;102498.36;;;20.11;30.22
72330;BME280;69154;52.076;5.110;2023-06-24T06:17:05;102497.58;;;19.89;30.69
72330;BME280;69154;52.076;5.110;2023-06-24T06:19:31;102492.64;;;21.23;29.59
72330;BME280;69154;52.076;5.110;2023-06-24T06:21:57;102489.98;;;20.74;30.38
72330;BME280;69154;52.076;5.110;2023-06-24T06:24:23;102491.71;;;21.04;30.35
72330;BME280;69154;52.076;5.110;2023-06-24T06:26:48;102495.38;;;21.50;29.66
72330;BME280;69154;52.076;5.110;2023-06-24T06:29:14;102505.56;;;22.07;29.44
72330;BME280;69154;52.076;5.110;2023-06-24T06:31:40;102506.82;;;20.61;30.27
72330;BME280;69154;52.076;5.110;2023-06-24T06:34:05;102507.03;;;22.08;29.59
72330;BME280;69154;52.076;5.110;2023-06-24T06:36:31;102506.70;;;20.57;29.96
72330;BME280;69154;52.076;5.110;2023-06-24T06:38:56;102504.48;;;21.41;29.35
72330;BME280;69154;52.076;5.110;2023-06-24T06:41:22;102504.70;;;21.18;29.86
72330;BME280;69154;52.076;5.110;2023-06-24T06:43:48;102501.78;;;21.07;30.12
72330;BME280;69154;52.076;5.110;2023-06-24T06:46:13;102503.53;;;21.62;29.35
72330;BME280;69154;52.076;5.110;2023-06-24T06:48:39;102501.88;;;21.68;30.51
72330;BME280;69154;52.076;5.110;2023-06-24T06:51:04;102501.61;;;21.06;30.62
72330;BME280;69154;52.076;5.110;2023-06-24T06:53:30;102500.23;;;21.60;29.94
72330;BME280;69154;52.076;5.110;2023-06-24T06:55:55;102500.75;;;21.59;30.37
72330;BME280;69154;52.076;5.110;2023-06-24T06:58:21;102505.61;;;22.00;30.38
72330;BME280;69154;52.076;5.110;2023-06-24T07:00:46;102504.55;;;22.03;29.98
72330;BME280;69154;52.076;5.110;2023-06-24T07:03:12;102499.09;;;21.48;29.63
72330;BME280;69154;52.076;5.110;2023-06-24T07:05:38;102499.10;;;22.18;29.33
72330;BME280;69154;52.076;5.110;2023-06-24T07:08:05;102498.34;;;22.52;29.57
72330;BME280;69154;52.076;5.110;2023-06-24T07:10:29;102499.20;;;22.58;29.54
72330;BME280;69154;52.076;5.110;2023-06-24T07:12:54;102503.52;;;22.28;29.48
72330;BME280;69154;52.076;5.110;2023-06-24T07:15:20;102505.19;;;22.46;29.54
72330;BME280;69154;52.076;5.110;2023-06-24T07:17:46;102503.42;;;22.39;29.16
72330;BME280;69154;52.076;5.110;2023-06-24T07:20:12;102500.91;;;21.72;29.70
72330;BME280;69154;52.076;5.110;2023-06-24T07:22:38;102506.96;;;22.36;29.74
72330;BME280;69154;52.076;5.110;2023-06-24T07:25:04;102508.21;;;22.43;29.77
72330;BME280;69154;52.076;5.110;2023-06-24T07:27:29;102509.23;;;22.96;28.65
72330;BME280;69154;52.076;5.110;2023-06-24T07:29:55;102509.92;;;21.64;30.04
72330;BME280;69154;52.076;5.110;2023-06-24T07:32:20;102512.67;;;22.06;29.51
72330;BME280;69154;52.076;5.110;2023-06-24T07:34:46;102510.74;;;22.44;29.59
72330;BME280;69154;52.076;5.110;2023-06-24T07:37:11;102507.08;;;22.82;29.10
72330;BME280;69154;52.076;5.110;2023-06-24T07:39:37;102505.01;;;22.41;28.62
72330;BME280;69154;52.076;5.110;2023-06-24T07:42:03;102508.50;;;23.55;28.62
72330;BME280;69154;52.076;5.110;2023-06-24T07:44:28;102506.37;;;23.84;27.61
72330;BME280;69154;52.076;5.110;2023-06-24T07:46:54;102500.03;;;24.28;27.25
72330;BME280;69154;52.076;5.110;2023-06-24T07:49:20;102501.19;;;23.31;28.03
72330;BME280;69154;52.076;5.110;2023-06-24T07:51:45;102503.48;;;24.05;28.09
72330;BME280;69154;52.076;5.110;2023-06-24T07:54:10;102504.05;;;22.85;28.75
72330;BME280;69154;52.076;5.110;2023-06-24T07:56:36;102501.81;;;23.54;27.22
72330;BME280;69154;52.076;5.110;2023-06-24T07:59:02;102499.62;;;23.74;27.93
72330;BME280;69154;52.076;5.110;2023-06-24T08:01:27;102504.18;;;22.70;28.35
72330;BME280;69154;52.076;5.110;2023-06-24T08:03:53;102503.74;;;23.36;27.96
72330;BME280;69154;52.076;5.110;2023-06-24T08:06:19;102508.53;;;23.34;28.51
72330;BME280;69154;52.076;5.110;2023-06-24T08:08:44;102506.90;;;23.41;28.42
72330;BME280;69154;52.076;5.110;2023-06-24T08:11:10;102505.22;;;22.50;29.53
72330;BME280;69154;52.076;5.110;2023-06-24T08:13:35;102499.35;;;22.99;28.02
72330;BME280;69154;52.076;5.110;2023-06-24T08:16:01;102492.99;;;22.72;28.73
72330;BME280;69154;52.076;5.110;2023-06-24T08:18:26;102490.54;;;23.38;28.40
72330;BME280;69154;52.076;5.110;2023-06-24T08:20:52;102491.47;;;24.05;27.75
72330;BME280;69154;52.076;5.110;2023-06-24T08:23:17;102496.95;;;23.39;27.79
72330;BME280;69154;52.076;5.110;2023-06-24T08:25:43;102495.59;;;23.27;27.94
72330;BME280;69154;52.076;5.110;2023-06-24T08:28:08;102495.62;;;23.02;28.21
72330;BME280;69154;52.076;5.110;2023-06-24T08:30:39;102497.37;;;22.80;27.74
72330;BME280;69154;52.076;5.110;2023-06-24T08:32:59;102492.42;;;22.68;27.65
72330;BME280;69154;52.076;5.110;2023-06-24T08:35:26;102490.72;;;23.13;27.16
72330;BME280;69154;52.076;5.110;2023-06-24T08:37:50;102492.72;;;23.43;27.01
72330;BME280;69154;52.076;5.110;2023-06-24T08:40:17;102495.02;;;23.66;27.56
72330;BME280;69154;52.076;5.110;2023-06-24T08:42:43;102497.46;;;23.32;27.39
72330;BME280;69154;52.076;5.110;2023-06-24T08:45:08;102499.39;;;22.55;28.80
72330;BME280;69154;52.076;5.110;2023-06-24T08:47:33;102497.62;;;23.02;27.97
72330;BME280;69154;52.076;5.110;2023-06-24T08:50:03;102497.75;;;23.37;27.74
72330;BME280;69154;52.076;5.110;2023-06-24T08:52:26;102498.03;;;23.68;27.82
72330;BME280;69154;52.076;5.110;2023-06-24T08:54:51;102497.14;;;22.83;28.07
72330;BME280;69154;52.076;5.110;2023-06-24T08:57:15;102499.19;;;23.53;28.04
72330;BME280;69154;52.076;5.110;2023-06-24T08:59:41;102499.10;;;23.26;28.12
72330;BME280;69154;52.076;5.110;2023-06-24T09:02:06;102499.64;;;23.02;29.42
72330;BME280;69154;52.076;5.110;2023-06-24T09:04:31;102496.74;;;23.00;28.87
72330;BME280;69154;52.076;5.110;2023-06-24T09:06:57;102495.97;;;22.94;28.86
72330;BME280;69154;52.076;5.110;2023-06-24T09:09:23;102492.73;;;22.55;29.31
72330;BME280;69154;52.076;5.110;2023-06-24T09:11:52;102491.84;;;23.66;28.51
72330;BME280;69154;52.076;5.110;2023-06-24T09:14:13;102492.10;;;24.36;28.63
72330;BME280;69154;52.076;5.110;2023-06-24T09:16:39;102489.70;;;23.74;28.29
72330;BME280;69154;52.076;5.110;2023-06-24T09:19:04;102489.85;;;24.05;27.76
72330;BME280;69154;52.076;5.110;2023-06-24T09:21:30;102489.66;;;24.50;27.97
72330;BME280;69154;52.076;5.110;2023-06-24T09:23:56;102487.89;;;23.80;28.81
72330;BME280;69154;52.076;5.110;2023-06-24T09:26:23;102488.08;;;24.79;27.56
72330;BME280;69154;52.076;5.110;2023-06-24T09:28:47;102483.40;;;24.81;27.44
72330;BME280;69154;52.076;5.110;2023-06-24T09:31:11;102482.69;;;26.64;25.72
72330;BME280;69154;52.076;5.110;2023-06-24T09:33:36;102481.08;;;27.21;24.17
72330;BME280;69154;52.076;5.110;2023-06-24T09:36:03;102475.20;;;30.20;22.47
72330;BME280;69154;52.076;5.110;2023-06-24T09:38:32;102476.39;;;34.09;19.64
72330;BME280;69154;52.076;5.110;2023-06-24T09:41:02;102473.44;;;35.93;17.51
72330;BME280;69154;52.076;5.110;2023-06-24T09:43:20;102471.91;;;36.69;16.06
72330;BME280;69154;52.076;5.110;2023-06-24T09:45:44;102471.48;;;39.97;15.02
72330;BME280;69154;52.076;5.110;2023-06-24T09:48:09;102466.85;;;40.34;13.75
72330;BME280;69154;52.076;5.110;2023-06-24T09:50:35;102460.96;;;41.44;13.20
72330;BME280;69154;52.076;5.110;2023-06-24T09:53:00;102460.67;;;40.42;13.42
72330;BME280;69154;52.076;5.110;2023-06-24T09:55:26;102461.14;;;40.92;13.22
72330;BME280;69154;52.076;5.110;2023-06-24T09:57:53;102455.78;;;41.83;13.32
72330;BME280;69154;52.076;5.110;2023-06-24T10:00:19;102454.26;;;42.36;12.96
72330;BME280;69154;52.076;5.110;2023-06-24T10:02:43;102454.75;;;40.56;13.21
72330;BME280;69154;52.076;5.110;2023-06-24T10:05:07;102454.20;;;41.36;13.15
72330;BME280;69154;52.076;5.110;2023-06-24T10:07:34;102450.28;;;40.64;13.01
72330;BME280;69154;52.076;5.110;2023-06-24T10:09:58;102455.18;;;38.60;14.27
72330;BME280;69154;52.076;5.110;2023-06-24T10:12:23;102454.98;;;38.69;14.41
72330;BME280;69154;52.076;5.110;2023-06-24T10:14:48;102452.71;;;38.36;14.49
72330;BME280;69154;52.076;5.110;2023-06-24T10:17:14;102450.29;;;40.43;14.30
72330;BME280;69154;52.076;5.110;2023-06-24T10:19:40;102449.24;;;41.87;12.63
72330;BME280;69154;52.076;5.110;2023-06-24T10:22:08;102449.37;;;42.52;12.26
72330;BME280;69154;52.076;5.110;2023-06-24T10:24:32;102448.52;;;41.51;12.76
72330;BME280;69154;52.076;5.110;2023-06-24T10:27:02;102446.95;;;42.33;12.38
72330;BME280;69154;52.076;5.110;2023-06-24T10:29:31;102438.98;;;39.81;13.50
72330;BME280;69154;52.076;5.110;2023-06-24T10:31:51;102441.51;;;40.29;14.16
72330;BME280;69154;52.076;5.110;2023-06-24T10:34:22;102439.71;;;41.11;13.76
72330;BME280;69154;52.076;5.110;2023-06-24T10:36:38;102437.44;;;42.65;12.20
72330;BME280;69154;52.076;5.110;2023-06-24T10:39:03;102435.80;;;43.35;11.79
72330;BME280;69154;52.076;5.110;2023-06-24T10:41:28;102437.65;;;40.46;13.00
72330;BME280;69154;52.076;5.110;2023-06-24T10:43:56;102435.91;;;41.02;12.10
72330;BME280;69154;52.076;5.110;2023-06-24T10:46:19;102426.78;;;41.61;12.60
72330;BME280;69154;52.076;5.110;2023-06-24T10:48:44;102431.28;;;42.72;12.31
72330;BME280;69154;52.076;5.110;2023-06-24T10:51:10;102431.94;;;43.16;11.73
72330;BME280;69154;52.076;5.110;2023-06-24T10:53:35;102430.17;;;41.54;11.67
72330;BME280;69154;52.076;5.110;2023-06-24T10:56:01;102431.82;;;36.99;14.02
72330;BME280;69154;52.076;5.110;2023-06-24T10:58:26;102423.29;;;39.68;13.22
72330;BME280;69154;52.076;5.110;2023-06-24T11:00:51;102423.66;;;39.70;12.77
72330;BME280;69154;52.076;5.110;2023-06-24T11:03:18;102424.56;;;40.70;12.83
72330;BME280;69154;52.076;5.110;2023-06-24T11:05:44;102417.27;;;41.37;12.25
72330;BME280;69154;52.076;5.110;2023-06-24T11:08:08;102419.87;;;40.89;12.41
72330;BME280;69154;52.076;5.110;2023-06-24T11:10:33;102417.42;;;42.29;11.71
72330;BME280;69154;52.076;5.110;2023-06-24T11:13:04;102417.43;;;42.53;11.97
72330;BME280;69154;52.076;5.110;2023-06-24T11:15:25;102410.60;;;42.54;10.75
72330;BME280;69154;52.076;5.110;2023-06-24T11:17:51;102406.91;;;41.23;11.19
72330;BME280;69154;52.076;5.110;2023-06-24T11:20:14;102406.70;;;42.63;11.90
72330;BME280;69154;52.076;5.110;2023-06-24T11:22:40;102407.96;;;41.96;11.28
72330;BME280;69154;52.076;5.110;2023-06-24T11:25:06;102404.82;;;41.33;11.52
72330;BME280;69154;52.076;5.110;2023-06-24T11:27:31;102410.96;;;42.88;11.20
72330;BME280;69154;52.076;5.110;2023-06-24T11:29:57;102406.34;;;44.20;10.57
72330;BME280;69154;52.076;5.110;2023-06-24T11:32:21;102407.62;;;44.09;10.22
72330;BME280;69154;52.076;5.110;2023-06-24T11:34:47;102395.17;;;39.77;11.71
72330;BME280;69154;52.076;5.110;2023-06-24T11:37:14;102399.20;;;40.02;12.38
72330;BME280;69154;52.076;5.110;2023-06-24T11:39:37;102391.33;;;37.97;12.65
72330;BME280;69154;52.076;5.110;2023-06-24T11:42:06;102395.87;;;37.63;13.23
72330;BME280;69154;52.076;5.110;2023-06-24T11:44:31;102392.01;;;40.70;12.43
72330;BME280;69154;52.076;5.110;2023-06-24T11:47:03;102392.49;;;39.35;11.54
72330;BME280;69154;52.076;5.110;2023-06-24T11:49:19;102392.61;;;40.81;11.61
72330;BME280;69154;52.076;5.110;2023-06-24T11:51:47;102386.99;;;43.46;10.37
72330;BME280;69154;52.076;5.110;2023-06-24T11:54:09;102392.04;;;39.52;11.30
72330;BME280;69154;52.076;5.110;2023-06-24T11:56:35;102389.44;;;43.19;10.10
72330;BME280;69154;52.076;5.110;2023-06-24T11:58:59;102382.90;;;45.59;9.53
72330;BME280;69154;52.076;5.110;2023-06-24T12:01:30;102380.18;;;44.34;9.30
72330;BME280;69154;52.076;5.110;2023-06-24T12:03:50;102375.96;;;45.44;8.74
72330;BME280;69154;52.076;5.110;2023-06-24T12:06:15;102377.97;;;45.59;9.22
72330;BME280;69154;52.076;5.110;2023-06-24T12:08:41;102370.62;;;46.09;8.21
72330;BME280;69154;52.076;5.110;2023-06-24T12:11:06;102373.49;;;47.57;8.20
72330;BME280;69154;52.076;5.110;2023-06-24T12:13:31;102364.00;;;46.07;8.99
72330;BME280;69154;52.076;5.110;2023-06-24T12:15:57;102364.44;;;43.58;10.07
72330;BME280;69154;52.076;5.110;2023-06-24T12:18:22;102360.36;;;46.15;9.40
72330;BME280;69154;52.076;5.110;2023-06-24T12:20:47;102363.89;;;43.27;10.08
72330;BME280;69154;52.076;5.110;2023-06-24T12:23:12;102360.24;;;41.71;9.96
72330;BME280;69154;52.076;5.110;2023-06-24T12:25:37;102356.44;;;44.64;9.36
72330;BME280;69154;52.076;5.110;2023-06-24T12:28:02;102357.47;;;44.33;10.37
72330;BME280;69154;52.076;5.110;2023-06-24T12:30:28;102356.14;;;43.43;10.32
72330;BME280;69154;52.076;5.110;2023-06-24T12:32:53;102356.92;;;43.31;10.49
72330;BME280;69154;52.076;5.110;2023-06-24T12:35:18;102357.78;;;45.96;9.42
72330;BME280;69154;52.076;5.110;2023-06-24T12:37:43;102354.04;;;43.83;9.07
72330;BME280;69154;52.076;5.110;2023-06-24T12:40:08;102354.06;;;43.70;10.00
72330;BME280;69154;52.076;5.110;2023-06-24T12:42:33;102352.28;;;43.15;9.23